sensor_id;sensor_type;location;lat;lon;timestamp;P1;durP1;ratioP1;P2;durP2;ratioP2
7939;SDS011;4015;48.888;9.226;2023-03-13T00:01:27;12.43;;;3.77;;
7939;SDS011;4015;48.888;9.226;2023-03-13T00:03:58;10.77;;;4.13;;
7939;SDS011;4015;48.888;9.226;2023-03-13T00:06:25;9.83;;;4.23;;
7939;SDS011;4015;48.888;9.226;2023-03-13T00:08:52;11.27;;;3.87;;
7939;SDS011;4015;48.888;9.226;2023-03-13T00:11:19;10.93;;;4.53;;
7939;SDS011;4015;48.888;9.226;2023-03-13T00:13:44;8.87;;;3.40;;
7939;SDS011;4015;48.888;9.226;2023-03-13T00:16:10;9.00;;;3.97;;
7939;SDS011;4015;48.888;9.226;2023-03-13T00:18:38;9.60;;;3.77;;
7939;SDS011;4015;48.888;9.226;2023-03-13T00:21:04;16.07;;;4.33;;
7939;SDS011;4015;48.888;9.226;2023-03-13T00:23:32;13.43;;;4.40;;
7939;SDS011;4015;48.888;9.226;2023-03-13T00:25:58;13.17;;;3.90;;
7939;SDS011;4015;48.888;9.226;2023-03-13T00:28:29;9.27;;;3.80;;
7939;SDS011;4015;48.888;9.226;2023-03-13T00:33:35;14.23;;;4.53;;
7939;SDS011;4015;48.888;9.226;2023-03-13T00:36:03;11.87;;;4.93;;
7939;SDS011;4015;48.888;9.226;2023-03-13T00:38:31;13.57;;;4.40;;
7939;SDS011;4015;48.888;9.226;2023-03-13T00:41:03;11.97;;;3.87;;
7939;SDS011;4015;48.888;9.226;2023-03-13T00:43:33;7.53;;;3.60;;
7939;SDS011;4015;48.888;9.226;2023-03-13T00:45:59;13.10;;;4.43;;
7939;SDS011;4015;48.888;9.226;2023-03-13T00:48:25;8.73;;;4.23;;
7939;SDS011;4015;48.888;9.226;2023-03-13T00:50:50;9.90;;;3.80;;
7939;SDS011;4015;48.888;9.226;2023-03-13T00:53:16;10.93;;;4.40;;
7939;SDS011;4015;48.888;9.226;2023-03-13T00:55:52;13.33;;;4.70;;
7939;SDS011;4015;48.888;9.226;2023-03-13T00:58:22;9.50;;;4.33;;
7939;SDS011;4015;48.888;9.226;2023-03-13T01:00:49;11.17;;;4.10;;
7939;SDS011;4015;48.888;9.226;2023-03-13T01:03:14;16.13;;;4.80;;
7939;SDS011;4015;48.888;9.226;2023-03-13T01:05:40;12.23;;;3.83;;
7939;SDS011;4015;48.888;9.226;2023-03-13T01:08:05;12.87;;;4.67;;
7939;SDS011;4015;48.888;9.226;2023-03-13T01:10:31;11.60;;;3.77;;
7939;SDS011;4015;48.888;9.226;2023-03-13T01:12:56;14.07;;;4.70;;
7939;SDS011;4015;48.888;9.226;2023-03-13T01:15:21;9.90;;;4.30;;
7939;SDS011;4015;48.888;9.226;2023-03-13T01:17:48;10.47;;;4.13;;
7939;SDS011;4015;48.888;9.226;2023-03-13T01:20:13;9.33;;;4.40;;
7939;SDS011;4015;48.888;9.226;2023-03-13T01:22:39;15.03;;;5.37;;
7939;SDS011;4015;48.888;9.226;2023-03-13T01:25:04;12.90;;;4.77;;
7939;SDS011;4015;48.888;9.226;2023-03-13T01:27:30;13.70;;;4.33;;
7939;SDS011;4015;48.888;9.226;2023-03-13T01:29:55;11.40;;;4.13;;
7939;SDS011;4015;48.888;9.226;2023-03-13T01:32:21;12.90;;;3.97;;
7939;SDS011;4015;48.888;9.226;2023-03-13T01:34:46;13.63;;;4.30;;
7939;SDS011;4015;48.888;9.226;2023-03-13T01:37:12;13.37;;;4.30;;
7939;SDS011;4015;48.888;9.226;2023-03-13T01:39:37;12.30;;;3.73;;
7939;SDS011;4015;48.888;9.226;2023-03-13T01:42:03;12.20;;;4.63;;
7939;SDS011;4015;48.888;9.226;2023-03-13T01:44:29;13.93;;;4.70;;
7939;SDS011;4015;48.888;9.226;2023-03-13T01:46:54;9.87;;;3.73;;
7939;SDS011;4015;48.888;9.226;2023-03-13T01:49:21;11.30;;;4.10;;
7939;SDS011;4015;48.888;9.226;2023-03-13T01:51:52;11.80;;;4.17;;
7939;SDS011;4015;48.888;9.226;2023-03-13T01:54:23;11.13;;;4.43;;
7939;SDS011;4015;48.888;9.226;2023-03-13T01:57:12;11.63;;;4.27;;
7939;SDS011;4015;48.888;9.226;2023-03-13T01:59:50;13.90;;;3.83;;
7939;SDS011;4015;48.888;9.226;2023-03-13T02:02:20;10.63;;;4.07;;
7939;SDS011;4015;48.888;9.226;2023-03-13T02:04:48;10.23;;;4.23;;
7939;SDS011;4015;48.888;9.226;2023-03-13T02:07:20;13.17;;;3.63;;
7939;SDS011;4015;48.888;9.226;2023-03-13T02:09:52;9.83;;;3.80;;
7939;SDS011;4015;48.888;9.226;2023-03-13T02:12:25;11.33;;;3.87;;
7939;SDS011;4015;48.888;9.226;2023-03-13T02:14:54;12.77;;;4.00;;
7939;SDS011;4015;48.888;9.226;2023-03-13T02:17:23;7.50;;;3.17;;
7939;SDS011;4015;48.888;9.226;2023-03-13T02:19:50;7.20;;;3.50;;
7939;SDS011;4015;48.888;9.226;2023-03-13T02:27:39;9.33;;;3.13;;
7939;SDS011;4015;48.888;9.226;2023-03-13T02:30:08;6.80;;;3.40;;
7939;SDS011;4015;48.888;9.226;2023-03-13T02:32:34;5.93;;;3.20;;
7939;SDS011;4015;48.888;9.226;2023-03-13T02:35:02;7.23;;;3.30;;
7939;SDS011;4015;48.888;9.226;2023-03-13T02:37:31;9.63;;;2.90;;
7939;SDS011;4015;48.888;9.226;2023-03-13T02:39:58;11.03;;;3.03;;
7939;SDS011;4015;48.888;9.226;2023-03-13T02:42:27;6.60;;;2.93;;
7939;SDS011;4015;48.888;9.226;2023-03-13T02:44:54;9.23;;;3.00;;
7939;SDS011;4015;48.888;9.226;2023-03-13T02:47:20;7.87;;;2.27;;
7939;SDS011;4015;48.888;9.226;2023-03-13T02:49:47;11.50;;;3.43;;
7939;SDS011;4015;48.888;9.226;2023-03-13T02:52:22;9.03;;;3.10;;
7939;SDS011;4015;48.888;9.226;2023-03-13T02:54:54;9.13;;;3.47;;
7939;SDS011;4015;48.888;9.226;2023-03-13T02:57:27;6.97;;;3.37;;
7939;SDS011;4015;48.888;9.226;2023-03-13T02:59:53;9.70;;;3.43;;
7939;SDS011;4015;48.888;9.226;2023-03-13T03:02:19;8.23;;;3.10;;
7939;SDS011;4015;48.888;9.226;2023-03-13T03:04:44;13.20;;;3.93;;
7939;SDS011;4015;48.888;9.226;2023-03-13T03:07:09;8.03;;;3.17;;
7939;SDS011;4015;48.888;9.226;2023-03-13T03:09:35;9.20;;;3.67;;
7939;SDS011;4015;48.888;9.226;2023-03-13T03:12:00;11.37;;;2.93;;
7939;SDS011;4015;48.888;9.226;2023-03-13T03:14:25;7.10;;;3.40;;
7939;SDS011;4015;48.888;9.226;2023-03-13T03:16:51;7.07;;;2.87;;
7939;SDS011;4015;48.888;9.226;2023-03-13T03:19:16;8.33;;;3.00;;
7939;SDS011;4015;48.888;9.226;2023-03-13T03:21:42;6.70;;;2.67;;
7939;SDS011;4015;48.888;9.226;2023-03-13T03:24:09;10.77;;;3.17;;
7939;SDS011;4015;48.888;9.226;2023-03-13T03:26:34;10.40;;;3.23;;
7939;SDS011;4015;48.888;9.226;2023-03-13T03:29:00;9.13;;;3.70;;
7939;SDS011;4015;48.888;9.226;2023-03-13T03:31:25;14.83;;;2.87;;
7939;SDS011;4015;48.888;9.226;2023-03-13T03:33:51;11.00;;;3.50;;
7939;SDS011;4015;48.888;9.226;2023-03-13T03:36:20;9.83;;;3.13;;
7939;SDS011;4015;48.888;9.226;2023-03-13T03:38:47;7.90;;;3.10;;
7939;SDS011;4015;48.888;9.226;2023-03-13T03:41:13;7.67;;;2.63;;
7939;SDS011;4015;48.888;9.226;2023-03-13T03:43:39;9.83;;;2.87;;
7939;SDS011;4015;48.888;9.226;2023-03-13T03:46:05;5.53;;;2.40;;
7939;SDS011;4015;48.888;9.226;2023-03-13T03:48:31;11.53;;;2.83;;
7939;SDS011;4015;48.888;9.226;2023-03-13T03:50:56;8.53;;;2.90;;
7939;SDS011;4015;48.888;9.226;2023-03-13T03:53:22;5.50;;;2.00;;
7939;SDS011;4015;48.888;9.226;2023-03-13T03:55:48;4.90;;;2.00;;
7939;SDS011;4015;48.888;9.226;2023-03-13T03:58:14;5.43;;;2.40;;
7939;SDS011;4015;48.888;9.226;2023-03-13T04:00:42;6.87;;;2.00;;
7939;SDS011;4015;48.888;9.226;2023-03-13T04:03:08;5.57;;;1.90;;
7939;SDS011;4015;48.888;9.226;2023-03-13T04:05:34;5.57;;;1.87;;
7939;SDS011;4015;48.888;9.226;2023-03-13T04:07:59;6.67;;;2.23;;
7939;SDS011;4015;48.888;9.226;2023-03-13T04:10:25;5.00;;;2.10;;
7939;SDS011;4015;48.888;9.226;2023-03-13T04:12:50;8.07;;;1.80;;
7939;SDS011;4015;48.888;9.226;2023-03-13T04:15:15;5.70;;;2.33;;
7939;SDS011;4015;48.888;9.226;2023-03-13T04:17:41;6.33;;;2.07;;
7939;SDS011;4015;48.888;9.226;2023-03-13T04:20:06;5.20;;;1.93;;
7939;SDS011;4015;48.888;9.226;2023-03-13T04:22:32;5.00;;;1.80;;
7939;SDS011;4015;48.888;9.226;2023-03-13T04:24:58;4.10;;;1.77;;
7939;SDS011;4015;48.888;9.226;2023-03-13T04:27:24;5.07;;;2.07;;
7939;SDS011;4015;48.888;9.226;2023-03-13T04:29:49;7.70;;;2.10;;
7939;SDS011;4015;48.888;9.226;2023-03-13T04:32:14;6.27;;;1.83;;
7939;SDS011;4015;48.888;9.226;2023-03-13T04:34:40;3.23;;;1.10;;
7939;SDS011;4015;48.888;9.226;2023-03-13T04:37:05;2.17;;;1.27;;
7939;SDS011;4015;48.888;9.226;2023-03-13T04:39:30;2.17;;;1.10;;
7939;SDS011;4015;48.888;9.226;2023-03-13T04:41:56;3.40;;;1.00;;
7939;SDS011;4015;48.888;9.226;2023-03-13T04:44:21;2.50;;;1.27;;
7939;SDS011;4015;48.888;9.226;2023-03-13T04:46:48;3.40;;;1.20;;
7939;SDS011;4015;48.888;9.226;2023-03-13T04:49:14;2.90;;;1.10;;
7939;SDS011;4015;48.888;9.226;2023-03-13T04:51:40;3.00;;;1.10;;
7939;SDS011;4015;48.888;9.226;2023-03-13T04:54:07;4.00;;;1.00;;
7939;SDS011;4015;48.888;9.226;2023-03-13T04:56:32;1.27;;;0.70;;
7939;SDS011;4015;48.888;9.226;2023-03-13T04:58:58;1.30;;;0.87;;
7939;SDS011;4015;48.888;9.226;2023-03-13T05:01:23;3.80;;;1.00;;
7939;SDS011;4015;48.888;9.226;2023-03-13T05:03:49;1.97;;;1.00;;
7939;SDS011;4015;48.888;9.226;2023-03-13T05:06:14;1.20;;;0.83;;
7939;SDS011;4015;48.888;9.226;2023-03-13T05:08:39;3.40;;;1.10;;
7939;SDS011;4015;48.888;9.226;2023-03-13T05:11:05;3.20;;;1.20;;
7939;SDS011;4015;48.888;9.226;2023-03-13T05:13:30;0.90;;;0.70;;
7939;SDS011;4015;48.888;9.226;2023-03-13T05:15:56;1.50;;;0.80;;
7939;SDS011;4015;48.888;9.226;2023-03-13T05:18:21;1.07;;;0.90;;
7939;SDS011;4015;48.888;9.226;2023-03-13T05:20:47;0.80;;;0.70;;
7939;SDS011;4015;48.888;9.226;2023-03-13T05:23:12;0.80;;;0.80;;
7939;SDS011;4015;48.888;9.226;2023-03-13T05:25:37;1.63;;;0.70;;
7939;SDS011;4015;48.888;9.226;2023-03-13T05:28:03;1.47;;;0.80;;
7939;SDS011;4015;48.888;9.226;2023-03-13T05:30:28;2.10;;;0.87;;
7939;SDS011;4015;48.888;9.226;2023-03-13T05:32:54;1.13;;;0.77;;
7939;SDS011;4015;48.888;9.226;2023-03-13T05:35:19;0.97;;;0.80;;
7939;SDS011;4015;48.888;9.226;2023-03-13T05:37:44;1.50;;;0.83;;
7939;SDS011;4015;48.888;9.226;2023-03-13T05:40:10;1.13;;;0.80;;
7939;SDS011;4015;48.888;9.226;2023-03-13T05:42:36;1.87;;;0.80;;
7939;SDS011;4015;48.888;9.226;2023-03-13T05:45:02;1.87;;;0.70;;
7939;SDS011;4015;48.888;9.226;2023-03-13T05:47:28;1.00;;;0.77;;
7939;SDS011;4015;48.888;9.226;2023-03-13T05:49:53;1.73;;;0.87;;
7939;SDS011;4015;48.888;9.226;2023-03-13T05:52:18;2.33;;;0.80;;
7939;SDS011;4015;48.888;9.226;2023-03-13T05:54:44;1.00;;;0.80;;
7939;SDS011;4015;48.888;9.226;2023-03-13T05:57:09;0.87;;;0.70;;
7939;SDS011;4015;48.888;9.226;2023-03-13T05:59:34;1.10;;;0.60;;
7939;SDS011;4015;48.888;9.226;2023-03-13T06:02:00;0.97;;;0.70;;
7939;SDS011;4015;48.888;9.226;2023-03-13T06:04:25;0.93;;;0.80;;
7939;SDS011;4015;48.888;9.226;2023-03-13T06:06:51;2.87;;;0.70;;
7939;SDS011;4015;48.888;9.226;2023-03-13T06:09:16;1.63;;;1.00;;
7939;SDS011;4015;48.888;9.226;2023-03-13T06:11:41;0.80;;;0.80;;
7939;SDS011;4015;48.888;9.226;2023-03-13T06:14:07;1.30;;;0.90;;
7939;SDS011;4015;48.888;9.226;2023-03-13T06:16:33;1.97;;;0.93;;
7939;SDS011;4015;48.888;9.226;2023-03-13T06:18:58;1.83;;;0.80;;
7939;SDS011;4015;48.888;9.226;2023-03-13T06:21:24;1.20;;;0.80;;
7939;SDS011;4015;48.888;9.226;2023-03-13T06:23:49;1.43;;;0.80;;
7939;SDS011;4015;48.888;9.226;2023-03-13T06:26:14;0.70;;;0.70;;
7939;SDS011;4015;48.888;9.226;2023-03-13T06:28:40;0.90;;;0.70;;
7939;SDS011;4015;48.888;9.226;2023-03-13T06:31:06;1.27;;;1.17;;
7939;SDS011;4015;48.888;9.226;2023-03-13T06:33:32;0.70;;;0.70;;
7939;SDS011;4015;48.888;9.226;2023-03-13T06:35:59;1.30;;;0.63;;
7939;SDS011;4015;48.888;9.226;2023-03-13T06:38:25;0.87;;;0.87;;
7939;SDS011;4015;48.888;9.226;2023-03-13T06:40:52;1.37;;;0.60;;
7939;SDS011;4015;48.888;9.226;2023-03-13T06:43:17;2.40;;;0.80;;
7939;SDS011;4015;48.888;9.226;2023-03-13T06:45:43;1.17;;;0.70;;
7939;SDS011;4015;48.888;9.226;2023-03-13T06:48:08;1.33;;;0.70;;
7939;SDS011;4015;48.888;9.226;2023-03-13T06:50:36;1.00;;;0.80;;
7939;SDS011;4015;48.888;9.226;2023-03-13T06:53:02;2.27;;;0.70;;
7939;SDS011;4015;48.888;9.226;2023-03-13T06:55:28;0.50;;;0.50;;
7939;SDS011;4015;48.888;9.226;2023-03-13T06:57:53;1.10;;;0.60;;
7939;SDS011;4015;48.888;9.226;2023-03-13T07:00:19;2.30;;;0.90;;
7939;SDS011;4015;48.888;9.226;2023-03-13T07:02:44;0.97;;;0.70;;
7939;SDS011;4015;48.888;9.226;2023-03-13T07:05:10;0.60;;;0.60;;
7939;SDS011;4015;48.888;9.226;2023-03-13T07:07:35;1.13;;;0.70;;
7939;SDS011;4015;48.888;9.226;2023-03-13T07:10:00;3.00;;;0.80;;
7939;SDS011;4015;48.888;9.226;2023-03-13T07:12:26;0.90;;;0.80;;
7939;SDS011;4015;48.888;9.226;2023-03-13T07:14:51;1.37;;;0.60;;
7939;SDS011;4015;48.888;9.226;2023-03-13T07:17:17;1.33;;;0.77;;
7939;SDS011;4015;48.888;9.226;2023-03-13T07:19:42;2.27;;;0.70;;
7939;SDS011;4015;48.888;9.226;2023-03-13T07:22:07;1.07;;;0.77;;
7939;SDS011;4015;48.888;9.226;2023-03-13T07:24:33;0.70;;;0.70;;
7939;SDS011;4015;48.888;9.226;2023-03-13T07:26:58;1.40;;;0.70;;
7939;SDS011;4015;48.888;9.226;2023-03-13T07:29:23;2.50;;;0.83;;
7939;SDS011;4015;48.888;9.226;2023-03-13T07:31:49;0.60;;;0.60;;
7939;SDS011;4015;48.888;9.226;2023-03-13T07:34:14;1.10;;;1.00;;
7939;SDS011;4015;48.888;9.226;2023-03-13T07:36:39;1.23;;;0.70;;
7939;SDS011;4015;48.888;9.226;2023-03-13T07:39:05;0.60;;;0.60;;
7939;SDS011;4015;48.888;9.226;2023-03-13T07:41:31;1.63;;;1.20;;
7939;SDS011;4015;48.888;9.226;2023-03-13T07:43:57;0.83;;;0.80;;
7939;SDS011;4015;48.888;9.226;2023-03-13T07:46:22;1.87;;;1.07;;
7939;SDS011;4015;48.888;9.226;2023-03-13T07:48:48;1.27;;;0.80;;
7939;SDS011;4015;48.888;9.226;2023-03-13T07:51:15;1.27;;;0.80;;
7939;SDS011;4015;48.888;9.226;2023-03-13T07:53:43;1.73;;;0.87;;
7939;SDS011;4015;48.888;9.226;2023-03-13T07:56:10;1.43;;;0.80;;
7939;SDS011;4015;48.888;9.226;2023-03-13T07:58:37;1.60;;;0.60;;
7939;SDS011;4015;48.888;9.226;2023-03-13T08:01:11;0.73;;;0.73;;
7939;SDS011;4015;48.888;9.226;2023-03-13T08:03:38;1.20;;;0.90;;
7939;SDS011;4015;48.888;9.226;2023-03-13T08:06:05;3.13;;;0.70;;
7939;SDS011;4015;48.888;9.226;2023-03-13T08:08:32;1.80;;;0.80;;
7939;SDS011;4015;48.888;9.226;2023-03-13T08:10:59;0.80;;;0.80;;
7939;SDS011;4015;48.888;9.226;2023-03-13T08:13:26;2.40;;;0.60;;
7939;SDS011;4015;48.888;9.226;2023-03-13T08:15:51;1.80;;;1.33;;
7939;SDS011;4015;48.888;9.226;2023-03-13T08:18:17;1.10;;;0.90;;
7939;SDS011;4015;48.888;9.226;2023-03-13T08:20:42;0.80;;;0.70;;
7939;SDS011;4015;48.888;9.226;2023-03-13T08:23:07;1.17;;;0.90;;
7939;SDS011;4015;48.888;9.226;2023-03-13T08:25:33;1.07;;;0.70;;
7939;SDS011;4015;48.888;9.226;2023-03-13T08:27:58;0.60;;;0.60;;
7939;SDS011;4015;48.888;9.226;2023-03-13T08:30:23;2.70;;;0.90;;
7939;SDS011;4015;48.888;9.226;2023-03-13T08:32:49;0.77;;;0.70;;
7939;SDS011;4015;48.888;9.226;2023-03-13T08:35:14;0.70;;;0.60;;
7939;SDS011;4015;48.888;9.226;2023-03-13T08:37:39;1.87;;;0.80;;
7939;SDS011;4015;48.888;9.226;2023-03-13T08:40:05;0.80;;;0.80;;
7939;SDS011;4015;48.888;9.226;2023-03-13T08:42:34;1.20;;;0.80;;
7939;SDS011;4015;48.888;9.226;2023-03-13T08:45:00;2.53;;;0.90;;
7939;SDS011;4015;48.888;9.226;2023-03-13T08:47:25;1.60;;;0.83;;
7939;SDS011;4015;48.888;9.226;2023-03-13T08:49:50;3.50;;;0.93;;
7939;SDS011;4015;48.888;9.226;2023-03-13T08:52:16;2.93;;;0.90;;
7939;SDS011;4015;48.888;9.226;2023-03-13T08:54:41;0.80;;;0.70;;
7939;SDS011;4015;48.888;9.226;2023-03-13T08:57:06;1.00;;;0.90;;
7939;SDS011;4015;48.888;9.226;2023-03-13T08:59:32;1.33;;;0.93;;
7939;SDS011;4015;48.888;9.226;2023-03-13T09:01:57;0.70;;;0.70;;
7939;SDS011;4015;48.888;9.226;2023-03-13T09:04:22;3.10;;;1.10;;
7939;SDS011;4015;48.888;9.226;2023-03-13T09:06:48;1.37;;;0.80;;
7939;SDS011;4015;48.888;9.226;2023-03-13T09:09:13;2.80;;;1.10;;
7939;SDS011;4015;48.888;9.226;2023-03-13T09:11:38;1.43;;;1.00;;
7939;SDS011;4015;48.888;9.226;2023-03-13T09:14:04;2.90;;;0.90;;
7939;SDS011;4015;48.888;9.226;2023-03-13T09:16:31;1.20;;;0.83;;
7939;SDS011;4015;48.888;9.226;2023-03-13T09:18:57;1.57;;;1.13;;
7939;SDS011;4015;48.888;9.226;2023-03-13T09:21:24;2.73;;;1.10;;
7939;SDS011;4015;48.888;9.226;2023-03-13T09:23:54;2.20;;;1.00;;
7939;SDS011;4015;48.888;9.226;2023-03-13T09:26:20;1.05;;;0.95;;
7939;SDS011;4015;48.888;9.226;2023-03-13T09:28:47;3.28;;;0.90;;
7939;SDS011;4015;48.888;9.226;2023-03-13T09:31:13;2.05;;;0.80;;
7939;SDS011;4015;48.888;9.226;2023-03-13T09:33:40;1.60;;;1.10;;
7939;SDS011;4015;48.888;9.226;2023-03-13T09:36:07;2.90;;;0.88;;
7939;SDS011;4015;48.888;9.226;2023-03-13T09:38:33;2.30;;;1.13;;
7939;SDS011;4015;48.888;9.226;2023-03-13T09:41:22;6.30;;;1.13;;
7939;SDS011;4015;48.888;9.226;2023-03-13T09:44:37;1.23;;;1.00;;
7939;SDS011;4015;48.888;9.226;2023-03-13T09:46:47;2.33;;;1.55;;
7939;SDS011;4015;48.888;9.226;2023-03-13T09:49:37;2.90;;;1.23;;
7939;SDS011;4015;48.888;9.226;2023-03-13T09:57:30;4.03;;;1.13;;
7939;SDS011;4015;48.888;9.226;2023-03-13T10:00:05;3.33;;;1.20;;
7939;SDS011;4015;48.888;9.226;2023-03-13T10:02:37;2.65;;;1.40;;
7939;SDS011;4015;48.888;9.226;2023-03-13T10:07:38;2.70;;;1.00;;
7939;SDS011;4015;48.888;9.226;2023-03-13T10:10:06;2.20;;;1.23;;
7939;SDS011;4015;48.888;9.226;2023-03-13T10:12:41;5.50;;;1.40;;
7939;SDS011;4015;48.888;9.226;2023-03-13T10:17:56;1.20;;;1.05;;
7939;SDS011;4015;48.888;9.226;2023-03-13T10:20:25;1.48;;;0.80;;
7939;SDS011;4015;48.888;9.226;2023-03-13T10:22:55;4.03;;;1.33;;
7939;SDS011;4015;48.888;9.226;2023-03-13T10:25:28;1.75;;;1.02;;
7939;SDS011;4015;48.888;9.226;2023-03-13T10:27:57;1.63;;;1.00;;
7939;SDS011;4015;48.888;9.226;2023-03-13T10:32:56;2.83;;;1.40;;
7939;SDS011;4015;48.888;9.226;2023-03-13T10:35:32;2.00;;;0.95;;
7939;SDS011;4015;48.888;9.226;2023-03-13T10:38:10;4.18;;;1.23;;
7939;SDS011;4015;48.888;9.226;2023-03-13T10:40:42;1.75;;;1.00;;
7939;SDS011;4015;48.888;9.226;2023-03-13T10:43:18;3.90;;;1.02;;
7939;SDS011;4015;48.888;9.226;2023-03-13T10:45:45;2.10;;;0.93;;
7939;SDS011;4015;48.888;9.226;2023-03-13T10:50:37;3.35;;;1.20;;
7939;SDS011;4015;48.888;9.226;2023-03-13T10:53:12;3.25;;;1.40;;
7939;SDS011;4015;48.888;9.226;2023-03-13T10:55:45;2.45;;;1.20;;
7939;SDS011;4015;48.888;9.226;2023-03-13T10:58:16;1.42;;;1.20;;
7939;SDS011;4015;48.888;9.226;2023-03-13T11:00:46;3.08;;;1.20;;
7939;SDS011;4015;48.888;9.226;2023-03-13T11:05:59;1.85;;;1.00;;
7939;SDS011;4015;48.888;9.226;2023-03-13T11:08:32;3.92;;;1.20;;
7939;SDS011;4015;48.888;9.226;2023-03-13T11:11:00;2.92;;;1.08;;
7939;SDS011;4015;48.888;9.226;2023-03-13T11:13:29;2.78;;;1.27;;
7939;SDS011;4015;48.888;9.226;2023-03-13T11:16:00;6.18;;;5.45;;
7939;SDS011;4015;48.888;9.226;2023-03-13T11:18:36;3.13;;;1.13;;
7939;SDS011;4015;48.888;9.226;2023-03-13T11:21:03;2.55;;;1.40;;
7939;SDS011;4015;48.888;9.226;2023-03-13T11:31:08;1.48;;;1.20;;
7939;SDS011;4015;48.888;9.226;2023-03-13T11:34:05;1.25;;;0.95;;
7939;SDS011;4015;48.888;9.226;2023-03-13T11:42:03;2.80;;;1.33;;
7939;SDS011;4015;48.888;9.226;2023-03-13T11:44:47;1.98;;;1.15;;
7939;SDS011;4015;48.888;9.226;2023-03-13T11:47:19;1.88;;;1.08;;
7939;SDS011;4015;48.888;9.226;2023-03-13T11:49:57;2.47;;;1.00;;
7939;SDS011;4015;48.888;9.226;2023-03-13T11:55:27;1.10;;;1.00;;
7939;SDS011;4015;48.888;9.226;2023-03-13T12:03:21;3.13;;;1.10;;
7939;SDS011;4015;48.888;9.226;2023-03-13T12:05:58;4.60;;;1.13;;
7939;SDS011;4015;48.888;9.226;2023-03-13T12:08:41;3.55;;;1.17;;
7939;SDS011;4015;48.888;9.226;2023-03-13T12:11:23;1.70;;;1.10;;
7939;SDS011;4015;48.888;9.226;2023-03-13T12:14:04;1.75;;;1.00;;
7939;SDS011;4015;48.888;9.226;2023-03-13T12:16:57;4.20;;;1.20;;
7939;SDS011;4015;48.888;9.226;2023-03-13T12:19:47;3.33;;;0.82;;
7939;SDS011;4015;48.888;9.226;2023-03-13T12:22:34;2.55;;;1.05;;
7939;SDS011;4015;48.888;9.226;2023-03-13T12:25:10;1.85;;;1.20;;
7939;SDS011;4015;48.888;9.226;2023-03-13T12:27:44;1.25;;;0.80;;
7939;SDS011;4015;48.888;9.226;2023-03-13T12:30:18;1.33;;;0.93;;
7939;SDS011;4015;48.888;9.226;2023-03-13T12:35:38;2.90;;;1.58;;
7939;SDS011;4015;48.888;9.226;2023-03-13T12:38:10;2.83;;;2.05;;
7939;SDS011;4015;48.888;9.226;2023-03-13T12:43:52;1.63;;;1.05;;
7939;SDS011;4015;48.888;9.226;2023-03-13T12:51:54;1.55;;;0.93;;
7939;SDS011;4015;48.888;9.226;2023-03-13T12:54:30;2.00;;;1.27;;
7939;SDS011;4015;48.888;9.226;2023-03-13T13:00:00;4.20;;;1.00;;
7939;SDS011;4015;48.888;9.226;2023-03-13T13:02:31;1.90;;;1.20;;
7939;SDS011;4015;48.888;9.226;2023-03-13T13:04:58;2.60;;;0.95;;
7939;SDS011;4015;48.888;9.226;2023-03-13T13:07:29;2.67;;;1.40;;
7939;SDS011;4015;48.888;9.226;2023-03-13T13:12:25;2.25;;;1.30;;
7939;SDS011;4015;48.888;9.226;2023-03-13T13:19:55;1.88;;;0.93;;
7939;SDS011;4015;48.888;9.226;2023-03-13T13:37:45;2.22;;;1.00;;
7939;SDS011;4015;48.888;9.226;2023-03-13T13:42:54;1.40;;;0.90;;
7939;SDS011;4015;48.888;9.226;2023-03-13T13:45:22;3.03;;;0.80;;
7939;SDS011;4015;48.888;9.226;2023-03-13T13:48:12;1.55;;;1.10;;
7939;SDS011;4015;48.888;9.226;2023-03-13T14:01:27;3.13;;;0.98;;
7939;SDS011;4015;48.888;9.226;2023-03-13T14:03:53;1.88;;;0.90;;
7939;SDS011;4015;48.888;9.226;2023-03-13T14:06:27;4.03;;;1.30;;
7939;SDS011;4015;48.888;9.226;2023-03-13T14:08:56;1.48;;;0.82;;
7939;SDS011;4015;48.888;9.226;2023-03-13T14:11:38;1.30;;;0.80;;
7939;SDS011;4015;48.888;9.226;2023-03-13T14:14:14;3.05;;;0.70;;
7939;SDS011;4015;48.888;9.226;2023-03-13T14:16:44;4.85;;;0.85;;
7939;SDS011;4015;48.888;9.226;2023-03-13T14:21:48;2.53;;;0.77;;
7939;SDS011;4015;48.888;9.226;2023-03-13T14:24:14;2.15;;;0.82;;
7939;SDS011;4015;48.888;9.226;2023-03-13T14:26:41;3.40;;;1.00;;
7939;SDS011;4015;48.888;9.226;2023-03-13T14:29:07;2.65;;;1.10;;
7939;SDS011;4015;48.888;9.226;2023-03-13T14:31:40;1.90;;;0.73;;
7939;SDS011;4015;48.888;9.226;2023-03-13T14:34:07;2.88;;;0.98;;
7939;SDS011;4015;48.888;9.226;2023-03-13T14:36:48;2.78;;;1.13;;
7939;SDS011;4015;48.888;9.226;2023-03-13T14:39:35;4.65;;;1.20;;
7939;SDS011;4015;48.888;9.226;2023-03-13T14:42:02;4.63;;;0.90;;
7939;SDS011;4015;48.888;9.226;2023-03-13T14:44:31;2.42;;;1.08;;
7939;SDS011;4015;48.888;9.226;2023-03-13T14:47:04;3.95;;;1.00;;
7939;SDS011;4015;48.888;9.226;2023-03-13T14:49:31;1.77;;;0.80;;
7939;SDS011;4015;48.888;9.226;2023-03-13T14:52:01;3.17;;;0.82;;
7939;SDS011;4015;48.888;9.226;2023-03-13T14:54:50;1.65;;;1.00;;
7939;SDS011;4015;48.888;9.226;2023-03-13T14:57:21;2.67;;;0.90;;
7939;SDS011;4015;48.888;9.226;2023-03-13T14:59:51;4.25;;;0.95;;
7939;SDS011;4015;48.888;9.226;2023-03-13T15:04:58;3.28;;;0.63;;
7939;SDS011;4015;48.888;9.226;2023-03-13T15:07:52;2.50;;;0.90;;
7939;SDS011;4015;48.888;9.226;2023-03-13T15:10:23;5.00;;;1.05;;
7939;SDS011;4015;48.888;9.226;2023-03-13T15:12:49;2.28;;;0.80;;
7939;SDS011;4015;48.888;9.226;2023-03-13T15:15:15;1.85;;;0.82;;
7939;SDS011;4015;48.888;9.226;2023-03-13T15:17:40;3.85;;;0.77;;
7939;SDS011;4015;48.888;9.226;2023-03-13T15:20:06;1.17;;;0.80;;
7939;SDS011;4015;48.888;9.226;2023-03-13T15:22:36;2.08;;;0.85;;
7939;SDS011;4015;48.888;9.226;2023-03-13T15:25:05;1.35;;;0.70;;
7939;SDS011;4015;48.888;9.226;2023-03-13T15:27:38;2.20;;;0.85;;
7939;SDS011;4015;48.888;9.226;2023-03-13T15:30:04;1.58;;;0.82;;
7939;SDS011;4015;48.888;9.226;2023-03-13T15:32:32;1.20;;;0.80;;
7939;SDS011;4015;48.888;9.226;2023-03-13T15:34:59;1.63;;;0.65;;
7939;SDS011;4015;48.888;9.226;2023-03-13T15:37:26;1.50;;;0.90;;
7939;SDS011;4015;48.888;9.226;2023-03-13T15:39:53;2.28;;;1.13;;
7939;SDS011;4015;48.888;9.226;2023-03-13T15:42:20;3.70;;;0.82;;
7939;SDS011;4015;48.888;9.226;2023-03-13T15:44:46;3.35;;;1.52;;
7939;SDS011;4015;48.888;9.226;2023-03-13T15:47:17;2.70;;;0.90;;
7939;SDS011;4015;48.888;9.226;2023-03-13T15:49:44;1.90;;;0.88;;
7939;SDS011;4015;48.888;9.226;2023-03-13T15:52:12;1.38;;;0.95;;
7939;SDS011;4015;48.888;9.226;2023-03-13T15:54:42;3.03;;;1.10;;
7939;SDS011;4015;48.888;9.226;2023-03-13T15:57:10;2.30;;;1.00;;
7939;SDS011;4015;48.888;9.226;2023-03-13T15:59:38;4.30;;;1.08;;
7939;SDS011;4015;48.888;9.226;2023-03-13T16:02:08;1.58;;;0.90;;
7939;SDS011;4015;48.888;9.226;2023-03-13T16:04:39;2.47;;;1.10;;
7939;SDS011;4015;48.888;9.226;2023-03-13T16:07:08;2.65;;;1.33;;
7939;SDS011;4015;48.888;9.226;2023-03-13T16:09:38;2.85;;;1.10;;
7939;SDS011;4015;48.888;9.226;2023-03-13T16:12:04;1.23;;;0.90;;
7939;SDS011;4015;48.888;9.226;2023-03-13T16:14:30;2.88;;;1.05;;
7939;SDS011;4015;48.888;9.226;2023-03-13T16:16:55;2.83;;;1.00;;
7939;SDS011;4015;48.888;9.226;2023-03-13T16:19:21;3.22;;;0.98;;
7939;SDS011;4015;48.888;9.226;2023-03-13T16:21:47;2.35;;;1.10;;
7939;SDS011;4015;48.888;9.226;2023-03-13T16:24:13;2.30;;;1.33;;
7939;SDS011;4015;48.888;9.226;2023-03-13T16:26:41;1.92;;;1.00;;
7939;SDS011;4015;48.888;9.226;2023-03-13T16:29:09;4.07;;;1.30;;
7939;SDS011;4015;48.888;9.226;2023-03-13T16:31:35;3.22;;;1.30;;
7939;SDS011;4015;48.888;9.226;2023-03-13T16:34:01;2.13;;;0.80;;
7939;SDS011;4015;48.888;9.226;2023-03-13T16:36:28;1.65;;;0.88;;
7939;SDS011;4015;48.888;9.226;2023-03-13T16:38:55;1.40;;;0.85;;
7939;SDS011;4015;48.888;9.226;2023-03-13T16:41:22;3.17;;;1.00;;
7939;SDS011;4015;48.888;9.226;2023-03-13T16:43:49;1.88;;;1.20;;
7939;SDS011;4015;48.888;9.226;2023-03-13T16:48:41;1.70;;;1.13;;
7939;SDS011;4015;48.888;9.226;2023-03-13T16:51:20;1.75;;;1.10;;
7939;SDS011;4015;48.888;9.226;2023-03-13T16:53:48;1.15;;;0.80;;
7939;SDS011;4015;48.888;9.226;2023-03-13T16:58:58;2.35;;;1.00;;
7939;SDS011;4015;48.888;9.226;2023-03-13T17:01:24;3.05;;;1.45;;
7939;SDS011;4015;48.888;9.226;2023-03-13T17:03:54;1.80;;;1.02;;
7939;SDS011;4015;48.888;9.226;2023-03-13T17:06:22;2.97;;;1.20;;
7939;SDS011;4015;48.888;9.226;2023-03-13T17:08:49;1.35;;;1.17;;